Historyczne dane pomiarowe

Dodano dane terminowe – wersja testowa.

Dane z okresu 1951-2019

Wersja bazy: 1.34 [2019-03-16, lista zmian], aktualizacja planowana na 2019-04-15

Dane meteo z obszaru Polski uzyskane na podstawie danych udostępnionych przez Instytut Meteorologii i Gospodarki Wodnej – Państwowy Instytut Badawczy.

 

Wybierz Datę:    

       

TemperaturaWilgotnośćZachmurzenieWiatrCiśnienieWidzialnośćZjawiska
 Data    tng td wb rh cc ccl cl cm ch dir g1 g2 mslp ppp      
1999-07-17 00:00:00 11.7--- 10.6 11.193wxwxwx0wx--1021.2 996.3 0.0---wx
1999-07-17 01:00:00 11.5--- 10.8 11.195wxwx0wx--1021.3 996.4----wx
1999-07-17 02:00:00 11.1--- 10.4 10.795wxwxwxwx1wx--1021.1 996.2----wx
1999-07-17 03:00:00 10.3--- 9.6 9.995wxwxwxwx1wx--1021.4 996.4----wx
1999-07-17 04:00:00 10.5--- 10.0 10.296wxwxwx1wx--1021.5 996.5----wx
1999-07-17 05:00:00 12.7--- 11.3 11.991wxwx0wx--1021.5 996.7----wx
1999-07-17 06:00:00 14.3--- 12.2 13.187wxwxwx2wx--1021.8 997.1 0.0---wx
1999-07-17 07:00:00 17.4--- 12.1 14.371wxwx1wx--1021.5 997.1----wx
1999-07-17 08:00:00 19.4--- 10.6 14.357wxwx2wx--1021.4 997.2----wx
1999-07-17 09:00:00 21.4--- 11.5 15.553wxwxwx2wx--1021.2 997.1----wx
1999-07-17 10:00:00 21.4--- 9.6 14.647wxwxwx1wx--1021.1 997.0----wx
1999-07-17 11:00:00 22.4--- 10.2 15.346wxwxwx3wx--1020.7 996.7----wx
1999-07-17 12:00:00 22.5--- 9.9 15.245wxwxwx3wx--1020.7 996.7 0.0---wx
1999-07-17 13:00:00 23.3--- 10.4 15.744wxwxwx1wx--1020.4 996.5----wx
1999-07-17 14:00:00 23.8--- 10.2 15.842wxwxwx3wx--1020.1 996.2----wx
1999-07-17 15:00:00 24.2--- 11.8 16.746wxwxwx3wx--1019.9 996.1----wx
1999-07-17 16:00:00 23.8--- 8.6 15.138wxwxwxwx2wx--1019.8 996.0----wx
1999-07-17 17:00:00 23.2--- 10.0 15.543wxwxwxwx1wx--1019.9 996.0----wx
1999-07-17 18:00:00 22.9--- 12.3 16.551wxwxwx0wx--1019.9 996.0 0.0---wx
1999-07-17 19:00:00 18.5--- 12.5 14.968wxwx0wx--1020.6 996.3----wx
1999-07-17 20:00:00 15.1--- 12.0 13.382wxwx1wx--1021.1 996.5----wx
1999-07-17 21:00:00 13.7--- 11.8 12.688wxwx2wx--1021.3 996.6----wx
1999-07-17 22:00:00 13.1--- 11.7 12.391wxwx1wx--1021.6 996.8----wx
1999-07-17 23:00:00 12.1--- 11.0 11.593wxwx2wx--1021.7 996.8----wx

 

Źródłem pochodzenia danych jest Instytut Meteorologii i Gospodarki Wodnej – Państwowy Instytut Badawczy. Dane Instytutu Meteorologii i Gospodarki Wodnej – Państwowego Instytutu Badawczego zostały przetworzone.

Dane źródłowe można odnaleźć na stronie https://dane.imgw.pl